Time;durP1;ratioP1;P1;durP2;ratioP2;P2;SDS_P1;SDS_P2;PMS_P1;PMS_P2;Temp;Humidity;BMP_temperature;BMP_pressure;BME280_temperature;BME280_humidity;BME280_pressure;Samples;Min_cycle;Max_cycle;Signal;HPM_P1;HPM_P2
2022/12/29 00:01:47;;;;;;;2.23;1.03;;;;;;;-145.69;96.48;52525.59;5075206;28;20676;-78
2022/12/29 00:04:15;;;;;;;3.60;1.47;;;;;;;-145.69;95.65;52535.47;5075356;28;20199;-78
2022/12/29 00:06:42;;;;;;;2.30;1.00;;;;;;;-145.69;95.42;52555.28;5074182;28;20221;-78
2022/12/29 00:09:11;;;;;;;2.60;1.00;;;;;;;-145.69;94.88;52555.28;5072117;28;20549;-77
2022/12/29 00:11:37;;;;;;;1.73;1.10;;;;;;;-145.69;94.11;52545.38;5074439;28;20191;-77
2022/12/29 00:16:50;;;;;;;8.27;1.10;;;;;;;-145.69;92.36;52547.38;5074845;28;20295;-78
2022/12/29 00:35:48;;;;;;;6.07;1.33;;;;;;;-145.69;92.99;52511.72;5074792;28;20206;-78
2022/12/29 00:46:31;;;;;;;5.77;1.27;;;;;;;-145.69;90.22;52539.44;5074157;28;20213;-79
2022/12/29 00:51:42;;;;;;;3.27;1.00;;;;;;;-145.69;92.14;52533.50;5074383;28;20684;-79
2022/12/29 00:54:09;;;;;;;3.63;1.10;;;;;;;-145.69;90.87;52521.63;5074245;28;20230;-79
2022/12/29 00:56:35;;;;;;;3.47;1.10;;;;;;;-145.69;91.36;52541.44;5073928;28;20662;-79
2022/12/29 00:59:02;;;;;;;2.33;0.90;;;;;;;-145.69;91.68;52549.34;5074198;28;20221;-78
2022/12/29 01:01:28;;;;;;;4.63;1.00;;;;;;;-145.69;91.53;52521.63;5074258;28;20203;-78
2022/12/29 01:03:56;;;;;;;5.00;1.53;;;;;;;-145.69;90.80;52533.50;5073024;28;20199;-78
2022/12/29 01:06:24;;;;;;;2.57;0.93;;;;;;;-145.69;91.28;52583.00;5073902;28;20206;-78
2022/12/29 01:10:09;;;;;;;1.93;1.00;;;;;;;-145.69;88.96;52555.28;5073490;28;20668;-79
2022/12/29 01:11:37;;;;;;;1.93;1.00;;;;;;;-145.69;88.14;52567.16;5073346;28;20213;-77
2022/12/29 01:14:04;;;;;;;3.60;1.00;;;;;;;-145.69;88.86;52539.44;5071918;28;20226;-79
2022/12/29 01:16:31;;;;;;;2.23;1.20;;;;;;;-145.69;90.77;52543.41;5071237;28;20206;-77
2022/12/29 01:18:59;;;;;;;3.40;1.00;;;;;;;-145.69;90.11;52549.34;5073747;28;20203;-78
2022/12/29 01:21:26;;;;;;;3.97;1.20;;;;;;;-145.69;90.14;52541.44;5073702;28;20199;-79
2022/12/29 01:23:52;;;;;;;1.50;0.90;;;;;;;-145.69;87.19;52551.31;5073725;28;20225;-78
2022/12/29 01:26:19;;;;;;;2.13;1.00;;;;;;;-145.69;90.60;52547.38;5073301;28;20190;-77
2022/12/29 01:28:46;;;;;;;4.27;1.00;;;;;;;-145.69;88.63;52531.53;5073643;28;20202;-78
2022/12/29 01:31:14;;;;;;;4.57;1.00;;;;;;;-145.69;87.80;52487.97;5073616;28;20204;-78
2022/12/29 01:33:41;;;;;;;2.93;1.10;;;;;;;-145.69;87.14;52563.22;5073631;28;20237;-79
2022/12/29 01:36:12;;;;;;;2.87;1.10;;;;;;;-145.69;86.95;52523.59;5072983;28;20232;-79
2022/12/29 01:38:39;;;;;;;5.20;1.00;;;;;;;-145.69;85.67;52539.44;5072955;28;20223;-78
2022/12/29 01:41:07;;;;;;;5.53;1.20;;;;;;;-145.69;86.04;52507.75;5073451;28;20234;-78
2022/12/29 01:43:40;;;;;;;3.00;0.83;;;;;;;-145.69;82.02;52523.59;5073455;28;20214;-78
2022/12/29 01:46:16;;;;;;;5.50;1.00;;;;;;;-145.69;79.44;52509.75;5073592;28;20652;-78
2022/12/29 01:48:44;;;;;;;2.43;1.27;;;;;;;-145.69;82.76;52529.53;5072958;28;20896;-78
2022/12/29 01:51:12;;;;;;;1.73;0.90;;;;;;;-145.69;82.98;52517.66;5073022;28;20195;-77
2022/12/29 01:53:38;;;;;;;4.40;1.10;;;;;;;-145.69;84.78;52521.63;5073168;28;20716;-78
2022/12/29 01:56:08;;;;;;;2.00;0.63;;;;;;;-145.69;82.82;52515.69;5073328;28;20207;-79
2022/12/29 01:58:40;;;;;;;5.33;1.00;;;;;;;-145.69;85.84;52535.47;5069954;28;20191;-78
2022/12/29 02:01:07;;;;;;;2.83;0.80;;;;;;;-145.69;83.92;52503.81;5072532;28;20553;-78
2022/12/29 02:03:36;;;;;;;1.23;0.70;;;;;;;-145.69;83.33;52523.59;5072982;28;20209;-78
2022/12/29 02:06:08;;;;;;;4.80;1.07;;;;;;;-145.69;83.68;52525.59;5072948;28;20198;-78
2022/12/29 02:08:36;;;;;;;1.23;1.00;;;;;;;-145.69;84.60;52487.97;5072626;28;20191;-78
2022/12/29 02:11:03;;;;;;;2.80;0.70;;;;;;;-145.69;85.65;52497.84;5072842;28;20195;-78
2022/12/29 02:13:32;;;;;;;3.17;1.00;;;;;;;-145.69;82.33;52521.63;5072538;28;20214;-78
2022/12/29 02:16:10;;;;;;;0.87;0.80;;;;;;;-145.69;83.68;52519.63;5072036;28;20195;-78
2022/12/29 02:18:48;;;;;;;4.60;1.00;;;;;;;-145.69;83.29;52497.84;5071100;28;20202;-78
2022/12/29 02:21:48;;;;;;;2.83;1.10;;;;;;;-145.69;82.48;52523.59;5072249;28;20210;-78
2022/12/29 02:25:09;;;;;;;1.90;0.83;;;;;;;-145.69;83.04;52517.66;5052365;28;20680;-78
2022/12/29 02:27:50;;;;;;;6.83;1.37;;;;;;;-145.69;85.88;52527.56;5052954;28;20200;-79
2022/12/29 02:30:43;;;;;;;2.33;0.90;;;;;;;-145.69;85.16;52527.56;5052847;28;20238;-78
2022/12/29 02:33:20;;;;;;;5.97;1.10;;;;;;;-145.69;84.12;52559.25;5065216;28;20248;-78
2022/12/29 02:35:55;;;;;;;3.00;0.90;;;;;;;-145.69;84.16;52509.75;5072715;28;20579;-78
2022/12/29 02:38:40;;;;;;;2.33;1.00;;;;;;;-145.69;83.85;52501.81;5072401;28;20665;-78
2022/12/29 02:41:13;;;;;;;2.63;0.93;;;;;;;-145.69;85.28;52523.59;5072489;28;20235;-78
2022/12/29 02:43:48;;;;;;;2.90;0.80;;;;;;;-145.69;86.43;52545.38;5072853;28;20226;-78
2022/12/29 02:46:23;;;;;;;5.40;0.90;;;;;;;-145.69;86.15;52519.63;5072586;28;20198;-78
2022/12/29 02:48:56;;;;;;;2.73;1.00;;;;;;;-145.69;86.92;52543.41;5072347;28;20226;-79
2022/12/29 02:51:30;;;;;;;2.90;1.27;;;;;;;-145.69;86.01;52511.72;5072449;28;20202;-79
2022/12/29 02:56:42;;;;;;;1.40;1.00;;;;;;;-145.69;84.76;52519.63;5072655;28;20194;-78
2022/12/29 02:59:10;;;;;;;2.40;0.90;;;;;;;-145.69;83.89;52537.47;5072248;28;20195;-79
2022/12/29 03:04:41;;;;;;;1.60;0.97;;;;;;;-145.69;81.89;52505.78;5072141;28;20191;-79
2022/12/29 03:07:20;;;;;;;0.97;0.80;;;;;;;-145.69;82.70;52505.78;5072379;28;20205;-77
2022/12/29 03:10:02;;;;;;;3.17;0.93;;;;;;;-145.69;81.19;52503.81;5052615;28;20207;-78
2022/12/29 03:18:11;;;;;;;5.80;1.20;;;;;;;-145.69;80.59;52503.81;5052403;28;20566;-78
2022/12/29 03:20:45;;;;;;;1.57;0.90;;;;;;;-145.69;82.02;52563.22;5064258;28;20592;-77
2022/12/29 03:23:14;;;;;;;5.87;1.10;;;;;;;-145.69;83.11;52505.78;5072281;28;20195;-78
2022/12/29 03:25:45;;;;;;;2.33;1.20;;;;;;;-145.69;81.61;52515.69;5072270;28;20206;-77
2022/12/29 03:28:14;;;;;;;1.50;1.00;;;;;;;-145.69;79.37;52499.84;5074837;28;20202;-77
2022/12/29 03:30:42;;;;;;;5.60;1.20;;;;;;;-145.69;82.92;52549.34;5073959;28;20657;-77
2022/12/29 03:33:13;;;;;;;3.03;0.97;;;;;;;-145.69;83.88;52551.31;5073863;28;20195;-77
2022/12/29 03:35:44;;;;;;;8.30;1.30;;;;;;;-145.69;83.94;52499.84;5076107;28;20210;-79
2022/12/29 03:38:16;;;;;;;2.43;0.93;;;;;;;-145.69;83.48;52535.47;5075815;28;20195;-78
2022/12/29 03:40:46;;;;;;;6.83;1.20;;;;;;;-145.69;83.72;52499.84;5075374;28;20649;-78
2022/12/29 03:43:13;;;;;;;3.23;0.90;;;;;;;-145.69;85.07;52507.75;5075449;28;20203;-78
2022/12/29 03:45:40;;;;;;;1.53;0.83;;;;;;;-145.69;86.14;52515.69;5075561;28;20206;-79
2022/12/29 03:48:07;;;;;;;5.37;1.40;;;;;;;-145.69;85.92;52535.47;5075695;28;20260;-79
2022/12/29 03:50:33;;;;;;;4.33;1.00;;;;;;;-145.69;86.94;52539.44;5075684;28;20203;-79
2022/12/29 03:53:01;;;;;;;1.63;1.00;;;;;;;-145.69;87.07;52543.41;5072833;28;20201;-79
2022/12/29 03:55:27;;;;;;;3.07;0.97;;;;;;;-145.69;88.70;52535.47;5075163;28;20223;-78
2022/12/29 03:57:54;;;;;;;3.90;1.00;;;;;;;-145.69;89.43;52551.31;5075255;28;20206;-79
2022/12/29 04:00:20;;;;;;;4.63;1.00;;;;;;;-145.69;89.29;52529.53;5075273;28;20225;-78
2022/12/29 04:02:47;;;;;;;2.30;1.00;;;;;;;-145.69;89.67;52523.59;5073963;28;20191;-79
2022/12/29 04:05:14;;;;;;;4.07;1.10;;;;;;;-145.69;89.29;52537.47;5075000;28;20198;-78
2022/12/29 04:07:40;;;;;;;4.60;1.10;;;;;;;-145.69;89.13;52553.31;5074942;28;20684;-78
2022/12/29 04:10:09;;;;;;;4.37;1.00;;;;;;;-145.69;93.41;52553.31;5074636;28;20209;-78
2022/12/29 04:12:35;;;;;;;3.40;1.00;;;;;;;-145.69;90.39;52531.53;5075089;28;20209;-79
2022/12/29 04:15:02;;;;;;;3.47;1.10;;;;;;;-145.69;91.85;52507.75;5074926;28;20238;-79
2022/12/29 04:17:28;;;;;;;2.40;1.10;;;;;;;-145.69;91.62;52551.31;5075299;28;20199;-79
2022/12/29 04:20:59;;;;;;;3.40;1.20;;;;;;;-145.69;94.80;52503.81;5075243;28;20203;-79
2022/12/29 04:22:40;;;;;;;6.00;1.03;;;;;;;-145.69;98.15;52527.56;5051677;28;20523;-78
2022/12/29 04:25:09;;;;;;;1.97;1.20;;;;;;;-145.69;95.87;52577.06;5055606;28;20200;-78
2022/12/29 04:27:35;;;;;;;3.10;1.40;;;;;;;-145.69;95.16;52545.38;5074725;28;20198;-78
2022/12/29 04:30:02;;;;;;;1.70;1.00;;;;;;;-145.69;94.61;52499.84;5074632;28;20661;-79
2022/12/29 04:32:29;;;;;;;1.60;0.90;;;;;;;-145.69;92.37;52529.53;5073870;28;20665;-79
2022/12/29 04:34:55;;;;;;;6.13;1.20;;;;;;;-145.69;89.96;52505.78;5074636;28;20230;-79
2022/12/29 04:37:21;;;;;;;4.80;1.20;;;;;;;-145.69;90.80;52509.75;5074488;28;20210;-78
2022/12/29 04:39:48;;;;;;;4.40;1.67;;;;;;;-145.69;87.53;52527.56;5073394;28;20195;-79
2022/12/29 04:42:16;;;;;;;4.97;1.50;;;;;;;-145.69;89.15;52523.59;5073753;28;20218;-78
2022/12/29 04:44:42;;;;;;;2.87;1.20;;;;;;;-145.69;88.85;52503.81;5072287;28;20206;-79
2022/12/29 04:47:08;;;;;;;2.10;1.27;;;;;;;-145.69;87.32;52531.53;5074390;28;20654;-78
2022/12/29 04:49:35;;;;;;;3.97;1.20;;;;;;;-145.69;88.72;52519.63;5074306;28;20199;-79
2022/12/29 04:52:02;;;;;;;4.80;1.67;;;;;;;-145.69;90.12;52515.69;5054200;28;20196;-79
2022/12/29 04:54:28;;;;;;;4.13;1.17;;;;;;;-145.69;89.26;52517.66;5059591;28;20305;-79
2022/12/29 04:56:55;;;;;;;2.67;1.00;;;;;;;-145.69;89.44;52513.69;5074422;28;20657;-79
2022/12/29 04:59:23;;;;;;;1.70;1.20;;;;;;;-145.69;91.64;52509.75;5074374;28;20256;-79
2022/12/29 05:01:49;;;;;;;2.90;1.10;;;;;;;-145.69;87.99;52535.47;5074286;28;20206;-79
2022/12/29 05:04:15;;;;;;;1.60;0.90;;;;;;;-145.69;88.17;52503.81;5073617;28;20686;-78
2022/12/29 05:06:42;;;;;;;4.43;1.10;;;;;;;-145.69;86.95;52541.44;5073977;28;20194;-78
2022/12/29 05:09:08;;;;;;;5.77;1.60;;;;;;;-145.69;88.08;52491.91;5073837;28;20207;-79
2022/12/29 05:11:35;;;;;;;3.47;1.10;;;;;;;-145.69;87.98;52489.94;5073901;28;20676;-79
2022/12/29 05:14:02;;;;;;;1.33;1.07;;;;;;;-145.69;87.68;52549.34;5073804;28;20209;-78
2022/12/29 05:16:29;;;;;;;2.23;1.30;;;;;;;-145.69;89.09;52551.31;5073905;28;20199;-79
2022/12/29 05:18:56;;;;;;;2.03;1.23;;;;;;;-145.69;90.27;52484.00;5073547;28;20195;-78
2022/12/29 05:21:22;;;;;;;2.87;1.07;;;;;;;-145.69;90.47;52507.75;5073648;28;20195;-78
2022/12/29 05:23:49;;;;;;;2.07;1.00;;;;;;;-145.69;91.62;52529.53;5073704;28;20298;-79
2022/12/29 05:26:16;;;;;;;3.27;1.30;;;;;;;-145.69;91.91;52497.84;5073635;28;20194;-79
2022/12/29 05:28:42;;;;;;;1.83;1.10;;;;;;;-145.69;91.47;52513.69;5073815;28;20198;-78
2022/12/29 05:31:08;;;;;;;5.07;1.40;;;;;;;-145.69;92.85;52507.75;5073647;28;20202;-78
2022/12/29 05:33:36;;;;;;;2.93;1.10;;;;;;;-145.69;92.36;52527.56;5073293;28;20191;-80
2022/12/29 05:36:05;;;;;;;2.10;1.03;;;;;;;-145.69;93.10;52523.59;5073197;28;20623;-77
2022/12/29 05:38:31;;;;;;;2.07;1.10;;;;;;;-145.69;92.70;52507.75;5073669;28;20202;-79
2022/12/29 05:40:58;;;;;;;2.97;1.57;;;;;;;-145.69;93.02;52529.53;5073295;28;20260;-78
2022/12/29 05:43:24;;;;;;;4.10;2.00;;;;;;;-145.69;92.56;52539.44;5073456;28;20241;-78
2022/12/29 05:45:51;;;;;;;4.90;1.23;;;;;;;-145.69;93.33;52505.78;5070203;28;20203;-79
2022/12/29 05:48:17;;;;;;;3.47;1.00;;;;;;;-145.69;93.29;52507.75;5073153;28;20209;-79
2022/12/29 05:50:48;;;;;;;2.40;1.20;;;;;;;-145.69;95.40;52509.75;5073026;28;20653;-78
2022/12/29 05:53:14;;;;;;;3.47;1.20;;;;;;;-145.69;93.25;52503.81;5073527;28;20202;-78
2022/12/29 05:55:41;;;;;;;3.60;1.37;;;;;;;-145.69;96.57;52527.56;5071594;28;20198;-79
2022/12/29 05:58:07;;;;;;;4.77;1.30;;;;;;;-145.69;96.95;52537.47;5071520;28;20203;-78
2022/12/29 06:00:34;;;;;;;6.90;1.57;;;;;;;-145.69;98.05;52491.91;5072899;28;20653;-78
2022/12/29 06:03:00;;;;;;;1.77;1.20;;;;;;;-145.69;97.66;52493.91;5072553;28;20650;-78
2022/12/29 06:05:27;;;;;;;2.30;1.27;;;;;;;-145.69;98.46;52511.72;5072818;28;20202;-78
2022/12/29 06:07:54;;;;;;;4.40;1.60;;;;;;;-145.69;99.95;52513.69;5073162;28;20205;-78
2022/12/29 06:10:21;;;;;;;2.33;1.43;;;;;;;-145.69;99.78;52519.63;5072993;28;20194;-79
2022/12/29 06:12:48;;;;;;;2.27;1.13;;;;;;;-145.69;98.46;52491.91;5072811;28;20565;-78
2022/12/29 06:15:14;;;;;;;3.67;1.20;;;;;;;-145.69;99.80;52521.63;5072659;28;20226;-78
2022/12/29 06:17:41;;;;;;;3.80;1.40;;;;;;;-145.69;98.40;52523.59;5072863;28;20210;-78
2022/12/29 06:20:09;;;;;;;2.60;1.10;;;;;;;-145.69;97.90;52533.50;5073109;28;20252;-78
2022/12/29 06:22:36;;;;;;;5.43;1.50;;;;;;;-145.69;97.88;52491.91;5073093;28;20199;-78
2022/12/29 06:25:05;;;;;;;2.30;1.50;;;;;;;-145.69;98.63;52513.69;5072276;28;20206;-78
2022/12/29 06:27:32;;;;;;;2.63;1.30;;;;;;;-145.69;98.67;52505.78;5072704;28;20199;-79
2022/12/29 06:29:58;;;;;;;3.00;1.20;;;;;;;-145.69;98.13;52464.19;5072981;28;20264;-78
2022/12/29 06:32:25;;;;;;;3.23;1.07;;;;;;;-145.69;99.28;52491.91;5072353;28;20199;-79
2022/12/29 06:34:51;;;;;;;4.00;1.17;;;;;;;-145.69;99.48;52507.75;5072864;28;20237;-77
2022/12/29 06:37:17;;;;;;;2.03;1.10;;;;;;;-145.69;96.84;52523.59;5072572;28;20225;-78
2022/12/29 06:39:44;;;;;;;0.90;0.90;;;;;;;-145.69;97.92;52491.91;5072825;28;20199;-78
2022/12/29 06:42:12;;;;;;;7.37;1.30;;;;;;;-145.69;97.98;52503.81;5072561;28;20227;-78
2022/12/29 06:44:38;;;;;;;2.17;1.30;;;;;;;-145.69;98.58;52489.94;5072664;28;20249;-77
2022/12/29 06:47:04;;;;;;;2.50;1.07;;;;;;;-145.69;98.41;52495.88;5072395;28;20202;-78
2022/12/29 06:49:31;;;;;;;4.37;1.00;;;;;;;-145.69;97.18;52511.72;5072822;28;20198;-79
2022/12/29 06:51:59;;;;;;;3.47;0.90;;;;;;;-145.69;98.10;52468.16;5072503;28;20206;-79
2022/12/29 06:54:26;;;;;;;3.57;1.00;;;;;;;-145.69;98.69;52476.06;5072476;28;20653;-78
2022/12/29 06:56:52;;;;;;;2.60;1.00;;;;;;;-145.69;100.00;52527.56;5072313;28;20202;-78
2022/12/29 06:59:20;;;;;;;2.17;1.20;;;;;;;-145.69;100.00;52499.84;5072568;28;20199;-77
2022/12/29 07:01:46;;;;;;;2.33;1.00;;;;;;;-145.69;100.00;52515.69;5073234;28;20218;-78
2022/12/29 07:04:13;;;;;;;2.50;1.00;;;;;;;-145.69;100.00;52511.72;5076481;28;20194;-77
2022/12/29 07:06:40;;;;;;;5.07;1.10;;;;;;;-145.69;100.00;52495.88;5075931;28;20227;-76
2022/12/29 07:09:07;;;;;;;1.73;0.90;;;;;;;-145.69;100.00;52533.50;5076458;28;20281;-79
2022/12/29 07:11:33;;;;;;;2.00;1.03;;;;;;;-145.69;100.00;52503.81;5075668;28;20198;-77
2022/12/29 07:14:00;;;;;;;2.70;0.97;;;;;;;-145.69;100.00;52529.53;5075863;28;20195;-78
2022/12/29 07:16:29;;;;;;;2.20;1.00;;;;;;;-145.69;100.00;52517.66;5074709;28;20226;-77
2022/12/29 07:18:55;;;;;;;2.90;1.30;;;;;;;-145.69;100.00;52478.06;5073953;28;20206;-78
2022/12/29 07:21:22;;;;;;;13.37;4.93;;;;;;;-145.69;100.00;52531.53;5075904;28;20206;-78
2022/12/29 07:23:48;;;;;;;2.70;1.40;;;;;;;-145.69;100.00;52503.81;5076214;28;20222;-79
2022/12/29 07:26:17;;;;;;;3.03;1.10;;;;;;;-145.69;100.00;52549.34;5076027;28;20207;-78
2022/12/29 07:28:44;;;;;;;4.73;1.60;;;;;;;-145.69;100.00;52515.69;5075960;28;20236;-79
2022/12/29 07:31:15;;;;;;;2.63;1.10;;;;;;;-145.69;100.00;52515.69;5075699;28;20206;-77
2022/12/29 07:33:43;;;;;;;3.47;1.40;;;;;;;-145.69;99.16;52507.75;5075917;28;20229;-78
2022/12/29 07:36:09;;;;;;;3.20;1.20;;;;;;;-145.69;100.00;52503.81;5075797;28;20226;-78
2022/12/29 07:38:36;;;;;;;4.17;1.47;;;;;;;-145.69;99.71;52468.16;5075881;28;20561;-78
2022/12/29 07:41:02;;;;;;;4.03;1.63;;;;;;;-145.69;99.54;52509.75;5075245;28;20230;-79
2022/12/29 07:43:29;;;;;;;2.73;1.33;;;;;;;-145.69;97.34;52543.41;5058774;28;20206;-78
2022/12/29 07:45:55;;;;;;;4.03;1.87;;;;;;;-145.69;96.13;52499.84;5055414;28;20589;-78
2022/12/29 07:48:22;;;;;;;3.53;1.20;;;;;;;-145.69;98.85;52497.84;5055645;28;20196;-78
2022/12/29 07:50:50;;;;;;;3.13;1.80;;;;;;;-145.69;95.31;52501.81;5075036;28;20199;-78
2022/12/29 07:53:17;;;;;;;1.97;1.10;;;;;;;-145.69;94.36;52495.88;5075428;28;20202;-79
2022/12/29 07:55:43;;;;;;;2.40;1.07;;;;;;;-145.69;92.89;52503.81;5075001;28;20222;-78
2022/12/29 07:58:10;;;;;;;2.53;1.43;;;;;;;-145.69;94.52;52505.78;5075495;28;20202;-77
2022/12/29 08:00:37;;;;;;;2.40;1.20;;;;;;;-145.69;93.28;52515.69;5075567;28;20201;-78
2022/12/29 08:03:04;;;;;;;3.77;1.10;;;;;;;-145.69;92.71;52489.94;5075209;28;20201;-77
2022/12/29 08:05:31;;;;;;;2.37;1.13;;;;;;;-145.69;92.72;52509.75;5075349;28;20199;-77
2022/12/29 08:07:59;;;;;;;3.67;1.10;;;;;;;-145.69;91.90;52521.63;5055264;28;20574;-77
2022/12/29 08:10:25;;;;;;;5.50;1.23;;;;;;;-145.69;90.13;52480.03;5054976;28;20563;-77
2022/12/29 08:12:52;;;;;;;2.83;0.97;;;;;;;-145.69;89.22;52487.97;5054100;28;20203;-77
2022/12/29 08:15:18;;;;;;;5.07;1.10;;;;;;;-145.69;91.13;52523.59;5055154;28;20234;-77
2022/12/29 08:17:45;;;;;;;2.10;1.20;;;;;;;-145.69;89.33;52491.91;5055391;28;20208;-78
2022/12/29 08:20:11;;;;;;;2.63;1.20;;;;;;;-145.69;90.06;52499.84;5074735;28;20658;-77
2022/12/29 08:22:38;;;;;;;4.50;1.40;;;;;;;-145.69;88.77;52503.81;5074993;28;20248;-77
2022/12/29 08:25:06;;;;;;;2.87;1.40;;;;;;;-145.69;88.33;52466.16;5075030;28;20199;-78
2022/12/29 08:27:32;;;;;;;4.53;1.38;;;;;;;-145.69;89.96;52474.09;5074638;28;20201;-77
2022/12/29 08:30:00;;;;;;;3.40;1.37;;;;;;;-145.69;90.86;52503.81;5072180;28;20670;-77
2022/12/29 08:32:28;;;;;;;4.65;1.38;;;;;;;-145.69;89.14;52482.00;5072869;28;20286;-77
2022/12/29 08:34:54;;;;;;;7.38;2.00;;;;;;;-145.69;89.85;52491.91;5074744;28;20206;-77
2022/12/29 08:37:21;;;;;;;4.35;1.15;;;;;;;-145.69;89.87;52491.91;5074611;28;20205;-78
2022/12/29 08:39:48;;;;;;;4.53;1.77;;;;;;;-145.69;91.57;52523.59;5074888;28;20240;-78
2022/12/29 08:42:16;;;;;;;5.40;1.40;;;;;;;-145.69;91.93;52531.53;5073877;28;20229;-76
2022/12/29 08:44:42;;;;;;;3.53;2.17;;;;;;;-145.69;96.44;52539.44;5074234;28;20195;-78
2022/12/29 08:47:11;;;;;;;4.57;2.10;;;;;;;-145.69;98.19;52480.03;5074335;28;20210;-77
2022/12/29 08:49:37;;;;;;;6.50;1.20;;;;;;;-145.69;100.00;52511.72;5074822;28;20206;-78
2022/12/29 08:52:04;;;;;;;4.13;1.40;;;;;;;-145.69;100.00;52495.88;5074380;28;20205;-78
2022/12/29 08:54:30;;;;;;;1.50;1.30;;;;;;;-145.69;100.00;52464.19;5074109;28;20661;-77
2022/12/29 08:56:57;;;;;;;4.60;1.27;;;;;;;-145.69;99.64;52507.75;5074365;28;20230;-78
2022/12/29 08:59:25;;;;;;;5.27;1.50;;;;;;;-145.69;100.00;52478.06;5074367;28;20202;-77
2022/12/29 09:01:51;;;;;;;4.63;1.37;;;;;;;-145.69;99.99;52513.69;5073480;28;20191;-77
2022/12/29 09:04:18;;;;;;;1.73;1.20;;;;;;;-145.69;100.00;52511.72;5074206;28;20207;-77
2022/12/29 09:06:45;;;;;;;3.33;1.50;;;;;;;-145.69;100.00;52503.81;5073944;28;20206;-77
2022/12/29 09:09:12;;;;;;;7.17;2.03;;;;;;;-145.69;100.00;52491.91;5074387;28;20199;-78
2022/12/29 09:11:39;;;;;;;3.00;1.43;;;;;;;-145.69;100.00;52505.78;5073624;28;20277;-78
2022/12/29 09:14:05;;;;;;;6.10;1.70;;;;;;;-145.69;100.00;52468.16;5074075;28;20209;-77
2022/12/29 09:16:34;;;;;;;4.87;2.10;;;;;;;-145.69;100.00;52523.59;5073847;28;20233;-77
2022/12/29 09:19:00;;;;;;;4.53;2.20;;;;;;;-145.69;100.00;52495.88;5073466;28;20201;-79
2022/12/29 09:21:26;;;;;;;6.40;2.30;;;;;;;-145.69;100.00;52523.59;5073802;28;20199;-77
2022/12/29 09:23:53;;;;;;;2.40;1.50;;;;;;;-145.69;100.00;52503.81;5073865;28;20195;-76
2022/12/29 09:26:19;;;;;;;2.80;1.60;;;;;;;-145.69;100.00;52487.97;5073353;28;20557;-78
2022/12/29 09:28:46;;;;;;;5.73;1.70;;;;;;;-145.69;100.00;52491.91;5073716;28;20207;-77
2022/12/29 09:31:13;;;;;;;2.67;1.40;;;;;;;-145.69;100.00;52503.81;5071711;28;20210;-76
2022/12/29 09:33:41;;;;;;;4.17;2.40;;;;;;;-145.69;100.00;52478.06;5071837;28;20673;-77
2022/12/29 09:36:09;;;;;;;2.70;1.80;;;;;;;-145.69;100.00;52543.41;5064275;28;20729;-78
2022/12/29 09:38:35;;;;;;;7.40;1.40;;;;;;;-145.69;100.00;52513.69;5053596;28;20199;-78
2022/12/29 09:41:09;;;;;;;13.63;5.10;;;;;;;-145.69;100.00;52495.88;5055007;28;20713;-79
2022/12/29 09:43:56;;;;;;;2.70;1.00;;;;;;;-145.69;100.00;52485.97;5073264;28;20202;-81
2022/12/29 09:46:26;;;;;;;1.90;1.20;;;;;;;-145.69;100.00;52482.00;5073516;28;20206;-79
2022/12/29 09:49:05;;;;;;;2.37;1.30;;;;;;;-145.69;100.00;52491.91;5073276;28;20198;-79
2022/12/29 09:51:33;;;;;;;2.03;1.33;;;;;;;-145.69;100.00;52484.00;5073130;28;20187;-79
2022/12/29 09:54:17;;;;;;;2.77;1.20;;;;;;;-145.69;100.00;52523.59;5072925;28;20202;-80
2022/12/29 09:56:44;;;;;;;2.40;1.20;;;;;;;-145.69;100.00;52464.19;5072953;28;20856;-81
2022/12/29 09:59:16;;;;;;;5.67;2.00;;;;;;;-145.69;100.00;52480.03;5073394;28;20207;-79
2022/12/29 10:01:47;;;;;;;5.10;1.50;;;;;;;-145.69;100.00;52507.75;5073274;28;20600;-80
2022/12/29 10:04:15;;;;;;;2.60;1.40;;;;;;;-145.69;100.00;52458.25;5072409;28;20202;-80
2022/12/29 10:06:52;;;;;;;4.27;1.60;;;;;;;-145.69;100.00;52499.84;5072397;28;20206;-80
2022/12/29 10:09:28;;;;;;;3.47;1.40;;;;;;;-145.69;100.00;52499.84;5073100;28;20561;-81
2022/12/29 10:12:12;;;;;;;4.50;1.80;;;;;;;-145.69;100.00;52515.69;5073540;28;20565;-82
2022/12/29 10:14:52;;;;;;;2.30;1.43;;;;;;;-145.69;100.00;52491.91;5073772;28;20210;-82
2022/12/29 10:17:31;;;;;;;3.90;1.70;;;;;;;-145.69;100.00;52507.75;5073067;28;20320;-85
2022/12/29 10:20:15;;;;;;;5.47;1.17;;;;;;;-145.69;100.00;52491.91;5070841;28;20199;-77
2022/12/29 10:22:58;;;;;;;3.93;1.33;;;;;;;-145.69;100.00;52482.00;5065468;28;20213;-77
2022/12/29 10:25:27;;;;;;;5.57;1.27;;;;;;;-145.69;100.00;52501.81;5064508;28;20198;-77
2022/12/29 10:27:58;;;;;;;4.07;1.30;;;;;;;-145.69;100.00;52517.66;5072263;28;20207;-76
2022/12/29 10:30:25;;;;;;;2.03;1.20;;;;;;;-145.69;100.00;52499.84;5071578;28;20195;-76
2022/12/29 10:32:54;;;;;;;3.90;1.57;;;;;;;-145.69;100.00;52497.84;5071194;28;20665;-79
2022/12/29 10:35:24;;;;;;;3.00;1.37;;;;;;;-145.69;100.00;52485.97;5071212;28;20675;-77
2022/12/29 10:37:59;;;;;;;4.00;1.53;;;;;;;-145.69;100.00;52507.75;5071219;28;20226;-76
2022/12/29 10:40:32;;;;;;;2.93;1.40;;;;;;;-145.69;100.00;52503.81;5071916;28;20193;-78
2022/12/29 10:42:59;;;;;;;2.40;1.20;;;;;;;-145.69;100.00;52523.59;5072582;28;20704;-78
2022/12/29 10:45:30;;;;;;;1.80;1.10;;;;;;;-145.69;100.00;52511.72;5074211;28;20198;-76
2022/12/29 10:48:01;;;;;;;1.97;1.13;;;;;;;-145.69;100.00;52491.91;5076272;28;20653;-75
2022/12/29 10:50:30;;;;;;;1.47;1.10;;;;;;;-145.69;100.00;52519.63;5076569;28;20194;-76
2022/12/29 10:53:00;;;;;;;2.43;1.10;;;;;;;-145.69;100.00;52517.66;5076336;28;20230;-75
2022/12/29 10:55:32;;;;;;;2.83;1.30;;;;;;;-145.69;100.00;52491.91;5076456;28;20222;-76
2022/12/29 10:58:05;;;;;;;5.87;1.20;;;;;;;-145.69;100.00;52523.59;5076186;28;20241;-80
2022/12/29 11:00:33;;;;;;;5.00;1.40;;;;;;;-145.69;100.00;52487.97;5076633;28;20220;-77
2022/12/29 11:03:12;;;;;;;3.67;1.50;;;;;;;-145.69;100.00;52511.72;5076180;28;20210;-77
2022/12/29 11:05:47;;;;;;;4.83;1.30;;;;;;;-145.69;100.00;52499.84;5076322;28;20202;-77
2022/12/29 11:08:17;;;;;;;4.13;1.97;;;;;;;-145.69;100.00;52497.84;5075970;28;20237;-78
2022/12/29 11:10:46;;;;;;;1.43;1.13;;;;;;;-145.69;100.00;52519.63;5076217;28;20206;-80
2022/12/29 11:13:15;;;;;;;6.70;1.40;;;;;;;-145.69;100.00;52513.69;5075862;28;20191;-76
2022/12/29 11:15:43;;;;;;;5.23;1.30;;;;;;;-145.69;100.00;52511.72;5075998;28;20229;-76
2022/12/29 11:18:24;;;;;;;3.40;1.50;;;;;;;-145.69;100.00;52513.69;5075367;28;20680;-78
2022/12/29 11:20:54;;;;;;;4.97;1.93;;;;;;;-145.69;100.00;52541.44;5075602;28;20248;-77
2022/12/29 11:23:31;;;;;;;3.80;1.33;;;;;;;-145.69;100.00;52531.53;5076050;28;20211;-79
2022/12/29 11:26:22;;;;;;;8.47;4.53;;;;;;;-145.69;100.00;52511.72;5075710;28;20225;-77
2022/12/29 11:29:10;;;;;;;4.57;1.33;;;;;;;-145.69;100.00;52529.53;5060726;28;20207;-78
2022/12/29 11:31:41;;;;;;;4.57;1.90;;;;;;;-145.69;100.00;52515.69;5075482;28;20199;-77
2022/12/29 11:34:08;;;;;;;2.23;1.33;;;;;;;-145.69;100.00;52499.84;5073891;28;20199;-78
2022/12/29 11:36:36;;;;;;;12.03;5.57;;;;;;;-145.69;100.00;52533.50;5074139;28;20214;-76
2022/12/29 11:39:03;;;;;;;4.60;1.70;;;;;;;-145.69;100.00;52519.63;5075921;28;20202;-77
2022/12/29 11:41:32;;;;;;;3.97;1.37;;;;;;;-145.69;100.00;52503.81;5074834;28;20234;-76
2022/12/29 11:44:02;;;;;;;2.10;1.50;;;;;;;-145.69;100.00;52487.97;5075193;28;20690;-79
2022/12/29 11:46:32;;;;;;;3.23;1.30;;;;;;;-145.69;100.00;52515.69;5075376;28;20209;-78
2022/12/29 11:49:00;;;;;;;2.23;1.20;;;;;;;-145.69;100.00;52521.63;5074489;28;20205;-79
2022/12/29 11:51:30;;;;;;;3.47;1.30;;;;;;;-145.69;100.00;52501.81;5075282;28;20191;-78
2022/12/29 11:54:00;;;;;;;2.20;1.20;;;;;;;-145.69;100.00;52511.72;5075744;28;20202;-78
2022/12/29 11:56:38;;;;;;;6.33;1.10;;;;;;;-145.69;100.00;52557.28;5074965;28;20221;-78
2022/12/29 11:59:41;;;;;;;2.57;1.40;;;;;;;-145.69;100.00;52503.81;5075324;28;20202;-80
2022/12/29 12:02:33;;;;;;;1.57;1.30;;;;;;;-145.69;100.00;52505.78;5075329;28;20199;-79
2022/12/29 12:05:05;;;;;;;3.63;1.50;;;;;;;-145.69;100.00;52519.63;5075255;28;20205;-79
2022/12/29 12:07:40;;;;;;;4.87;1.47;;;;;;;-145.69;100.00;52503.81;5074204;28;20673;-79